Aviation Digital Data Service (ADDS)

Output produced by METARs form (0906 UTC 06 February 2016)
found at http://www.aviationweather.gov/adds/metars/
 
KAOO 060853Z AUTO 21005KT 10SM CLR M05/M09 A3031 RMK AO2 SLP284 T10501094 55006
KAOO 060753Z AUTO 00000KT 10SM CLR M04/M09 A3031 RMK AO2 SLP282 T10441094
KAOO 060653Z AUTO 27004KT 10SM CLR M05/M09 A3031 RMK AO2 SLP285 T10501094
KAOO 060553Z AUTO 20006KT 10SM CLR M04/M09 A3033 RMK AO2 SLP291 T10441089 11017 21056 53002
KAOO 060453Z AUTO 00000KT 10SM CLR M04/M09 A3033 RMK AO2 SLP290 T10441089 400061056
KAOO 060353Z AUTO 26003KT 10SM CLR M03/M09 A3033 RMK AO2 SLP288 T10331094
KAOO 060253Z AUTO 18005KT 10SM CLR M03/M09 A3032 RMK AO2 SLP289 T10331089 56002
KAOO 060153Z AUTO 00000KT 10SM CLR M04/M09 A3032 RMK AO2 SLP290 T10391094
KAOO 060053Z AUTO 31005KT 10SM CLR M02/M09 A3033 RMK AO2 SLP290 T10221089
KAOO 052353Z AUTO 31003KT 10SM CLR M02/M09 A3033 RMK AO2 SLP289 T10221094 10006 21022 53018
KAOO 052253Z AUTO 30010KT 10SM CLR M01/M09 A3031 RMK AO2 SLP283 T10111094
KAOO 052153Z AUTO 32011G16KT 10SM CLR 00/M09 A3029 RMK AO2 SLP274 T00001094
KAOO 052053Z AUTO 32014KT 10SM CLR 01/M10 A3027 RMK AO2 SLP268 T00061100 53007
KAOO 051953Z AUTO 29012G19KT 10SM BKN040 00/M09 A3026 RMK AO2 SLP263 T00001094
KAOO 051853Z AUTO 30016G22KT 10SM BKN035 00/M09 A3025 RMK AO2 SLP260 T00001089
KAOO 051800Z AUTO 31017G25KT 10SM FEW022 BKN031 M01/M07 A3025 RMK AO2 T10061072
KAOO 051753Z AUTO 31016G23KT 10SM FEW022 BKN029 M01/M07 A3025 RMK AO2 SNB1656E10 SLP260 P0000 60000 T10061067 10000 21022 58001
KAOO 051722Z AUTO 30016G22KT 10SM FEW022 SCT028 M01/M07 A3025 RMK AO2 SNB1656E10 P0000 T10061067
KAOO 051709Z AUTO 30015G21KT 9SM -SN FEW023 BKN028 BKN035 M01/M07 A3026 RMK AO2 SNB1656 P0000 T10061067
KAOO 051653Z AUTO 30013G22KT 10SM SCT024 BKN034 BKN055 M01/M06 A3026 RMK AO2 SNB13E29 SLP265 P0000 T10061061
KAOO 051643Z AUTO 29016G21KT 10SM SCT023 BKN035 BKN041 M01/M06 A3026 RMK AO2 SNB13E29 P0000 T10061061
KAOO 051627Z AUTO 32015KT 9SM -SN BKN023 M01/M07 A3026 RMK AO2 SNB13 P0000 T10061067
KAOO 051553Z AUTO 29016KT 10SM SCT029 M01/M07 A3025 RMK AO2 SNB10E22 SLP260 P0000 T10061072
KAOO 051516Z AUTO 30014KT 8SM -SN BKN029 OVC035 M01/M07 A3025 RMK AO2 SNB10 P0000 T10111072
KAOO 051453Z AUTO 31012G20KT 10SM FEW025 OVC033 M02/M08 A3024 RMK AO2 SLP258 T10171078 53024
KAOO 051446Z AUTO 32012KT 10SM FEW026 OVC033 M02/M08 A3024 RMK AO2 T10171078
KAOO 051353Z AUTO 33014G21KT 10SM BKN020 OVC027 M02/M07 A3021 RMK AO2 SLP247 T10221067
KAOO 051253Z AUTO 32015KT 10SM BKN024 BKN031 OVC060 M02/M07 A3018 RMK AO2 SLP239 T10221067
KAOO 051201Z AUTO 32010G20KT 10SM BKN023 OVC036 M02/M07 A3018 RMK AO2 T10171067
KAOO 051153Z AUTO 32014G20KT 10SM SCT023 OVC036 M02/M07 A3017 RMK AO2 PK WND 33026/1104 SLP232 I6000 T10171067 10000 21017 51022
KAOO 051053Z AUTO 32012G19KT 10SM OVC019 M02/M06 A3015 RMK AO2 SLP227 I1000 T10171056
KAOO 050953Z AUTO 30013G20KT 10SM BKN019 OVC026 M01/M05 A3014 RMK AO2 SLP220 T10111050
KAOO 050853Z AUTO 31012KT 10SM OVC018 M01/M04 A3010 RMK AO2 SLP208 T10061044 58007
KAOO 050753Z AUTO 31010KT 10SM BKN019 OVC028 00/M04 A3013 RMK AO2 SLP217 T00001044
KAOO 050729Z AUTO 31009KT 10SM SCT019 BKN027 OVC033 00/M04 A3011 RMK AO2 T00001039
KAOO 050653Z AUTO 30008KT 10SM FEW020 SCT026 OVC039 00/M04 A3012 RMK AO2 SLP212 T00001039
KAOO 050553Z AUTO 29009KT 10SM OVC045 00/M03 A3012 RMK AO2 SLP213 T00001033 10017 20000 58006
KAOO 050453Z AUTO 28007KT 10SM OVC048 01/M04 A3013 RMK AO2 SLP218 T00061039 400670006
KAOO 050353Z AUTO 29007KT 10SM OVC044 01/M05 A3013 RMK AO2 SLP217 T00111050
KAOO 050253Z AUTO 30005KT 10SM OVC041 01/M06 A3014 RMK AO2 SLP219 T00111056 53008
KAOO 050153Z AUTO 31005KT 10SM OVC036 01/M06 A3013 RMK AO2 SLP215 T00111056
KAOO 050053Z AUTO 28006KT 10SM OVC039 01/M06 A3012 RMK AO2 SLP215 T00111056
KAOO 042353Z AUTO 31007KT 10SM OVC035 02/M05 A3012 RMK AO2 SLP211 T00171050 10039 20017 51014
KAOO 042253Z AUTO 31006KT 10SM OVC035 02/M05 A3011 RMK AO2 PRESRR SLP210 T00171050
KAOO 042153Z AUTO 31006KT 10SM OVC032 02/M04 A3008 RMK AO2 SLP200 T00221039